Time;durP1;ratioP1;P1;durP2;ratioP2;P2;SDS_P1;SDS_P2;PMS_P1;PMS_P2;Temp;Humidity;BMP_temperature;BMP_pressure;BME280_temperature;BME280_humidity;BME280_pressure;Samples;Min_cycle;Max_cycle;Signal;HPM_P1;HPM_P2
2021/11/15 00:00:08;;;;;;;1.38;0.82;;;;;;;3.23;68.41;100486.09;5031116;28;20427;-44
2021/11/15 00:02:41;;;;;;;0.80;0.63;;;;;;;3.22;68.65;100479.25;5033943;28;20037;-49
2021/11/15 00:05:08;;;;;;;0.80;0.60;;;;;;;3.19;68.40;100480.94;5029730;28;20574;-48
2021/11/15 00:07:34;;;;;;;1.20;0.80;;;;;;;3.15;68.75;100484.31;5013737;28;20041;-50
2021/11/15 00:10:00;;;;;;;1.10;0.70;;;;;;;3.14;68.88;100483.44;5045708;28;20063;-51
2021/11/15 00:12:25;;;;;;;1.20;0.88;;;;;;;3.14;69.08;100475.72;5029401;28;20045;-48
2021/11/15 00:14:51;;;;;;;0.95;0.77;;;;;;;3.11;69.00;100488.56;5028869;28;20124;-48
2021/11/15 00:17:18;;;;;;;0.85;0.70;;;;;;;3.09;69.27;100485.09;5039304;28;20044;-48
2021/11/15 00:19:43;;;;;;;0.82;0.68;;;;;;;3.22;68.65;100483.50;5028991;28;20051;-47
2021/11/15 00:22:09;;;;;;;0.93;0.70;;;;;;;3.21;68.65;100492.06;5030907;28;20037;-51
2021/11/15 00:24:35;;;;;;;1.00;0.60;;;;;;;3.22;68.82;100501.50;5044345;28;20178;-47
2021/11/15 00:27:01;;;;;;;1.30;0.80;;;;;;;3.22;68.69;100497.22;5062547;28;20041;-51
2021/11/15 00:29:27;;;;;;;0.73;0.60;;;;;;;3.26;68.21;100508.38;5036581;28;20041;-48
2021/11/15 00:31:53;;;;;;;0.70;0.68;;;;;;;3.25;67.99;100510.09;5037679;28;20056;-49
2021/11/15 00:34:19;;;;;;;0.82;0.57;;;;;;;3.27;67.99;100510.09;5019448;28;20528;-47
2021/11/15 00:36:45;;;;;;;1.77;0.70;;;;;;;3.27;67.57;100513.53;5032237;28;20050;-51
2021/11/15 00:39:11;;;;;;;0.40;0.40;;;;;;;3.27;67.43;100516.09;5037477;28;20048;-51
2021/11/15 00:41:37;;;;;;;0.60;0.45;;;;;;;3.24;67.51;100518.66;5037646;28;20041;-50
2021/11/15 00:44:03;;;;;;;0.98;0.45;;;;;;;3.30;67.38;100521.25;5025097;28;21461;-47
2021/11/15 00:46:29;;;;;;;0.95;0.52;;;;;;;3.27;66.85;100518.69;5034252;28;20048;-46
2021/11/15 00:48:57;;;;;;;0.80;0.60;;;;;;;3.27;66.72;100530.66;5030286;28;20041;-50
2021/11/15 00:51:24;;;;;;;0.80;0.50;;;;;;;3.28;67.00;100527.25;5039953;28;20052;-48
2021/11/15 00:53:50;;;;;;;0.85;0.60;;;;;;;3.29;66.85;100526.41;5035130;28;20508;-47
2021/11/15 00:56:16;;;;;;;0.70;0.52;;;;;;;3.30;66.55;100535.81;5033706;28;20064;-50
2021/11/15 00:58:43;;;;;;;2.38;0.70;;;;;;;3.22;66.53;100509.22;5036043;28;20401;-47
2021/11/15 01:01:09;;;;;;;2.25;0.60;;;;;;;3.34;66.27;100540.16;5061190;28;20102;-44
2021/11/15 01:03:35;;;;;;;0.90;0.50;;;;;;;3.21;65.91;100508.34;5035854;28;20497;-48
2021/11/15 01:06:01;;;;;;;0.73;0.38;;;;;;;3.27;65.18;100528.97;5042326;28;20038;-48
2021/11/15 01:08:27;;;;;;;0.82;0.47;;;;;;;3.29;64.91;100536.69;5026832;28;20533;-47
2021/11/15 01:10:53;;;;;;;1.35;0.60;;;;;;;3.35;65.05;100536.72;5035029;28;20086;-47
2021/11/15 01:13:23;;;;;;;0.77;0.40;;;;;;;3.35;64.77;100547.84;5040124;28;20048;-50
2021/11/15 01:15:49;;;;;;;1.23;0.55;;;;;;;3.33;64.96;100556.41;5034549;28;20041;-49
2021/11/15 01:18:15;;;;;;;1.48;0.88;;;;;;;3.29;65.81;100560.69;5043232;28;20101;-47
2021/11/15 01:20:41;;;;;;;0.43;0.40;;;;;;;3.24;66.85;100561.50;5025223;28;20045;-50
2021/11/15 01:23:08;;;;;;;1.13;0.60;;;;;;;3.11;67.49;100539.94;5040914;28;20599;-45
2021/11/15 01:25:35;;;;;;;0.80;0.55;;;;;;;3.16;68.03;100555.41;5041669;28;20040;-49
2021/11/15 01:28:02;;;;;;;0.80;0.50;;;;;;;3.13;68.01;100561.38;5045003;28;20535;-49
2021/11/15 01:30:28;;;;;;;1.42;0.60;;;;;;;3.11;68.21;100570.78;5021610;28;20049;-46
2021/11/15 01:32:54;;;;;;;0.85;0.70;;;;;;;3.11;68.23;100560.50;5016359;28;20053;-49
2021/11/15 01:35:21;;;;;;;0.77;0.50;;;;;;;2.93;67.99;100538.03;5036594;28;20540;-46
2021/11/15 01:37:47;;;;;;;0.85;0.60;;;;;;;3.01;68.20;100557.81;5039030;28;20045;-47
2021/11/15 01:40:16;;;;;;;0.65;0.40;;;;;;;3.06;67.96;100574.13;5042399;28;20429;-49
2021/11/15 01:42:42;;;;;;;1.02;0.55;;;;;;;3.06;67.96;100572.44;5041185;28;20072;-47
2021/11/15 01:45:09;;;;;;;1.27;0.60;;;;;;;3.09;68.01;100566.47;5031059;28;20120;-48
2021/11/15 01:47:36;;;;;;;0.77;0.57;;;;;;;3.10;67.70;100579.31;5045936;28;20171;-47
2021/11/15 01:50:04;;;;;;;0.60;0.50;;;;;;;3.11;67.52;100585.31;5042960;28;20087;-46
2021/11/15 01:52:30;;;;;;;1.47;0.40;;;;;;;3.13;67.15;100581.94;5016563;28;20052;-48
2021/11/15 01:54:56;;;;;;;0.43;0.30;;;;;;;3.12;66.85;100584.47;5019553;28;20303;-45
2021/11/15 01:57:22;;;;;;;1.75;0.40;;;;;;;3.13;66.61;100588.78;5034846;28;20049;-46
2021/11/15 01:59:48;;;;;;;0.40;0.40;;;;;;;3.07;66.72;100587.00;5045162;28;20045;-48
2021/11/15 02:02:14;;;;;;;0.30;0.22;;;;;;;3.14;66.45;100601.63;5041415;28;20033;-46
2021/11/15 02:04:40;;;;;;;0.70;0.40;;;;;;;3.18;66.53;100605.09;5039047;28;20052;-49
2021/11/15 02:10:47;;;;;;;1.38;0.47;;;;;;;3.15;66.67;100615.34;5031547;28;20034;-50
2021/11/15 02:13:18;;;;;;;2.10;0.73;;;;;;;3.10;67.08;100615.28;5034706;28;20440;-47
2021/11/15 02:15:45;;;;;;;0.73;0.52;;;;;;;3.04;66.79;100596.38;5059149;28;20127;-51
2021/11/15 02:18:11;;;;;;;1.45;0.65;;;;;;;3.11;66.95;100621.28;5021149;28;20102;-47
2021/11/15 02:20:57;;;;;;;3.85;0.80;;;;;;;3.12;67.24;100616.19;5042114;28;20049;-49
2021/11/15 02:23:31;;;;;;;2.30;0.52;;;;;;;3.06;67.03;100608.41;5032362;28;20141;-50
2021/11/15 02:25:59;;;;;;;1.38;0.50;;;;;;;3.10;66.91;100623.00;5033201;28;20057;-48
2021/11/15 02:28:28;;;;;;;2.17;0.50;;;;;;;3.14;66.81;100631.63;5020821;28;20094;-52
2021/11/15 02:30:54;;;;;;;1.48;0.60;;;;;;;3.00;66.84;100592.91;5041216;28;20516;-52
2021/11/15 02:33:20;;;;;;;1.05;0.52;;;;;;;3.19;66.71;100629.97;5034527;28;20086;-47
2021/11/15 02:35:46;;;;;;;1.67;0.80;;;;;;;3.06;66.85;100613.53;5039536;28;20131;-48
2021/11/15 02:38:12;;;;;;;1.50;0.70;;;;;;;3.16;66.81;100637.63;5036203;28;20047;-46
2021/11/15 02:40:38;;;;;;;2.22;0.70;;;;;;;3.15;66.97;100635.88;5038019;28;20041;-48
2021/11/15 02:43:05;;;;;;;1.25;0.50;;;;;;;3.14;66.63;100637.59;5035519;28;20473;-48
2021/11/15 02:45:31;;;;;;;3.10;0.80;;;;;;;3.05;66.88;100622.09;5037298;28;20536;-50
2021/11/15 02:47:57;;;;;;;3.72;1.00;;;;;;;3.13;66.92;100643.59;5013820;28;20065;-46
2021/11/15 02:50:27;;;;;;;3.40;0.90;;;;;;;3.05;66.77;100628.94;5044844;28;20040;-49
2021/11/15 02:52:56;;;;;;;2.72;0.77;;;;;;;3.09;66.51;100641.81;5036228;28;20091;-50
2021/11/15 02:55:23;;;;;;;1.75;0.90;;;;;;;3.15;66.69;100647.03;5035804;28;20389;-50
2021/11/15 02:57:49;;;;;;;3.00;0.88;;;;;;;3.12;66.47;100651.28;5023442;28;20041;-48
2021/11/15 03:00:25;;;;;;;1.00;0.70;;;;;;;3.10;66.30;100655.53;5032391;28;20041;-49
2021/11/15 03:02:51;;;;;;;0.98;0.47;;;;;;;3.14;66.37;100657.31;5042286;28;20036;-47
2021/11/15 03:05:25;;;;;;;1.30;0.60;;;;;;;3.15;66.32;100653.88;5045787;28;20480;-52
2021/11/15 03:07:51;;;;;;;3.78;0.60;;;;;;;3.12;66.38;100641.88;5040722;28;20520;-50
2021/11/15 03:10:17;;;;;;;1.15;0.45;;;;;;;3.20;66.34;100667.63;5034407;28;20041;-48
2021/11/15 03:12:44;;;;;;;0.60;0.47;;;;;;;3.21;66.60;100662.50;5031694;28;20517;-47
2021/11/15 03:15:26;;;;;;;1.45;0.50;;;;;;;3.18;66.21;100675.34;5031474;28;20437;-49
2021/11/15 03:18:00;;;;;;;2.42;0.40;;;;;;;3.16;66.29;100665.88;5026248;28;20095;-48
2021/11/15 03:20:28;;;;;;;1.48;0.50;;;;;;;3.20;66.28;100681.34;5042787;28;20059;-51
2021/11/15 03:22:54;;;;;;;3.35;1.30;;;;;;;3.22;66.38;100687.38;5042077;28;20501;-49
2021/11/15 03:25:26;;;;;;;2.50;0.57;;;;;;;3.24;66.50;100693.41;5030758;28;20047;-46
2021/11/15 03:27:54;;;;;;;0.50;0.50;;;;;;;3.14;66.58;100681.25;5022309;28;20065;-48
2021/11/15 03:30:20;;;;;;;1.67;0.50;;;;;;;3.23;66.29;100694.25;5040841;28;20567;-49
2021/11/15 03:32:46;;;;;;;2.05;0.63;;;;;;;3.25;66.20;100691.66;5044368;28;20051;-46
2021/11/15 03:35:13;;;;;;;1.00;0.70;;;;;;;3.25;66.31;100696.81;5034081;28;20045;-50
2021/11/15 03:37:39;;;;;;;1.40;0.73;;;;;;;3.09;66.19;100675.22;5014751;28;20489;-50
2021/11/15 03:40:08;;;;;;;1.65;0.40;;;;;;;3.23;66.51;100694.25;5025532;28;20110;-48
2021/11/15 03:42:36;;;;;;;1.00;0.57;;;;;;;3.24;66.38;100705.38;5022437;28;20036;-48
2021/11/15 03:45:03;;;;;;;0.77;0.40;;;;;;;3.24;66.28;100697.69;5033367;28;20033;-47
2021/11/15 03:47:29;;;;;;;0.50;0.45;;;;;;;3.24;66.20;100703.69;5023881;28;20038;-50
2021/11/15 03:49:56;;;;;;;0.73;0.50;;;;;;;3.13;66.30;100687.28;5019738;28;20033;-48
2021/11/15 03:52:23;;;;;;;1.02;0.52;;;;;;;3.28;66.48;100707.13;5017202;28;20504;-48
2021/11/15 03:54:49;;;;;;;1.05;0.80;;;;;;;3.24;66.02;100705.38;5025886;28;20186;-48
2021/11/15 03:57:15;;;;;;;1.08;0.70;;;;;;;3.21;66.13;100711.34;5020998;28;20048;-50
2021/11/15 03:59:42;;;;;;;1.10;0.50;;;;;;;3.23;65.92;100716.50;5026214;28;20033;-51
2021/11/15 04:02:10;;;;;;;0.85;0.55;;;;;;;3.16;66.07;100714.69;5025744;28;20042;-47
2021/11/15 04:04:51;;;;;;;0.50;0.47;;;;;;;3.06;66.02;100711.16;5025190;28;20047;-46
2021/11/15 04:07:27;;;;;;;0.90;0.57;;;;;;;3.18;66.41;100723.28;5012349;28;20049;-50
2021/11/15 04:09:55;;;;;;;0.73;0.55;;;;;;;3.14;66.25;100729.25;5033281;28;20041;-50
2021/11/15 04:12:21;;;;;;;0.50;0.50;;;;;;;3.14;66.29;100736.97;5023280;28;20041;-45
2021/11/15 04:14:47;;;;;;;0.70;0.50;;;;;;;3.12;66.17;100747.22;5029213;28;20055;-47
2021/11/15 04:17:13;;;;;;;1.17;0.60;;;;;;;3.14;65.87;100766.06;5026590;28;20581;-47
2021/11/15 04:19:39;;;;;;;2.15;0.52;;;;;;;2.96;66.69;100747.84;5041030;28;20140;-45
2021/11/15 04:22:05;;;;;;;0.60;0.20;;;;;;;2.95;66.72;100775.22;5029906;28;20048;-48
2021/11/15 04:24:31;;;;;;;2.17;0.35;;;;;;;2.91;66.98;100783.75;5030611;28;20462;-44
2021/11/15 04:26:57;;;;;;;2.03;0.60;;;;;;;2.89;66.80;100785.41;5029099;28;20063;-47
2021/11/15 04:29:23;;;;;;;1.20;0.63;;;;;;;2.85;66.59;100791.34;5031692;28;20138;-48
2021/11/15 04:31:49;;;;;;;1.98;0.32;;;;;;;2.84;66.18;100793.91;5031925;28;20041;-46
2021/11/15 04:34:14;;;;;;;0.95;0.40;;;;;;;2.79;66.23;100798.09;5031353;28;20041;-46
2021/11/15 04:36:40;;;;;;;1.90;0.57;;;;;;;2.63;66.19;100793.56;5024985;28;20991;-46
2021/11/15 04:39:06;;;;;;;0.75;0.30;;;;;;;2.71;65.94;100813.41;5052956;28;20417;-47
2021/11/15 04:41:32;;;;;;;2.47;0.47;;;;;;;2.77;65.68;100812.66;5032900;28;20424;-47
2021/11/15 04:43:58;;;;;;;1.95;0.57;;;;;;;2.74;65.32;100799.75;5030654;28;20097;-45
2021/11/15 04:46:24;;;;;;;1.75;0.55;;;;;;;2.86;65.01;100817.91;4994532;28;20044;-46
2021/11/15 04:48:51;;;;;;;1.85;0.40;;;;;;;2.86;64.77;100828.19;5030526;28;20041;-45
2021/11/15 04:51:16;;;;;;;4.60;0.70;;;;;;;2.83;64.65;100828.13;5031627;28;20045;-47
2021/11/15 04:53:42;;;;;;;2.10;0.80;;;;;;;2.83;64.44;100828.13;5003261;28;20099;-46
2021/11/15 04:56:08;;;;;;;1.67;0.95;;;;;;;2.86;64.11;100826.47;5030741;28;20041;-48
2021/11/15 04:58:35;;;;;;;0.90;0.40;;;;;;;2.89;63.97;100830.78;5030705;28;20570;-52
2021/11/15 05:01:02;;;;;;;1.10;0.70;;;;;;;2.94;63.69;100840.28;5026842;28;20092;-58
2021/11/15 05:03:28;;;;;;;1.23;0.70;;;;;;;2.91;63.54;100835.13;5019938;28;20041;-49
2021/11/15 05:05:53;;;;;;;1.45;0.75;;;;;;;2.81;63.45;100822.97;4995819;28;20038;-46
2021/11/15 05:08:19;;;;;;;2.92;0.90;;;;;;;2.95;63.60;100851.44;5013894;28;20532;-44
2021/11/15 05:10:45;;;;;;;1.77;1.00;;;;;;;2.98;63.75;100848.94;5025359;28;20505;-45
2021/11/15 05:13:11;;;;;;;1.23;0.55;;;;;;;3.03;63.67;100854.13;5032951;28;20111;-44
2021/11/15 05:15:38;;;;;;;1.25;0.50;;;;;;;3.01;63.44;100866.94;5028672;28;20040;-44
2021/11/15 05:18:04;;;;;;;1.33;0.57;;;;;;;3.00;63.47;100870.34;5014271;28;20539;-45
2021/11/15 05:20:30;;;;;;;1.95;1.00;;;;;;;2.92;63.61;100861.66;5031817;28;20046;-45
2021/11/15 05:22:56;;;;;;;2.20;1.30;;;;;;;2.89;63.69;100864.16;5047580;28;20091;-45
2021/11/15 05:25:23;;;;;;;1.10;0.80;;;;;;;2.97;63.74;100884.03;5032171;28;20037;-43
2021/11/15 05:27:49;;;;;;;3.45;1.00;;;;;;;2.88;63.83;100872.72;5031296;28;20049;-46
2021/11/15 05:30:17;;;;;;;4.70;0.80;;;;;;;2.89;63.63;100895.00;5017006;28;20042;-44
2021/11/15 05:32:43;;;;;;;1.13;0.63;;;;;;;2.85;63.66;100899.22;5027881;28;20045;-43
2021/11/15 05:35:09;;;;;;;3.13;1.90;;;;;;;2.83;63.53;100908.59;5012487;28;20041;-43
2021/11/15 05:37:35;;;;;;;1.73;1.25;;;;;;;2.76;63.49;100900.78;5012649;28;20466;-45
2021/11/15 05:40:02;;;;;;;1.42;0.70;;;;;;;2.84;63.50;100912.03;5027697;28;20124;-45
2021/11/15 05:42:29;;;;;;;1.00;0.60;;;;;;;2.84;63.82;100914.59;5012310;28;20425;-44
2021/11/15 05:44:55;;;;;;;1.17;0.60;;;;;;;2.66;63.76;100904.91;5012041;28;20041;-46
2021/11/15 05:47:21;;;;;;;1.20;0.70;;;;;;;2.74;63.60;100930.69;5015375;28;20575;-43
2021/11/15 05:49:47;;;;;;;3.00;0.85;;;;;;;2.67;63.52;100936.59;5027429;28;20037;-47
2021/11/15 05:52:14;;;;;;;2.70;1.17;;;;;;;2.65;63.65;100939.13;5027653;28;20639;-45
2021/11/15 05:54:40;;;;;;;1.42;0.93;;;;;;;2.63;63.62;100934.78;5011602;28;20053;-44
2021/11/15 05:57:06;;;;;;;1.10;0.70;;;;;;;2.71;63.68;100941.78;5011711;28;20076;-44
2021/11/15 05:59:32;;;;;;;1.77;0.77;;;;;;;2.69;63.67;100927.19;5016911;28;20047;-45
2021/11/15 06:01:58;;;;;;;1.02;0.60;;;;;;;2.81;63.30;100946.25;5028995;28;20037;-45
2021/11/15 06:04:23;;;;;;;1.27;0.65;;;;;;;2.83;63.16;100949.69;5030542;28;20094;-45
2021/11/15 06:06:51;;;;;;;1.65;0.82;;;;;;;2.76;63.11;100937.59;5027787;28;20459;-44
2021/11/15 06:09:17;;;;;;;1.05;0.70;;;;;;;2.74;63.24;100953.81;5027377;28;20049;-46
2021/11/15 06:11:45;;;;;;;2.65;0.80;;;;;;;2.59;63.83;100950.97;5011260;28;20038;-43
2021/11/15 06:14:11;;;;;;;0.90;0.70;;;;;;;2.46;64.25;100955.03;5027176;28;20509;-42
2021/11/15 06:16:38;;;;;;;1.85;0.70;;;;;;;2.44;64.11;100965.25;5037869;28;20065;-45
2021/11/15 06:19:04;;;;;;;1.23;0.68;;;;;;;2.50;64.11;100972.22;5020115;28;20053;-44
2021/11/15 06:21:30;;;;;;;2.08;0.82;;;;;;;2.81;63.27;100971.06;5027997;28;20045;-47
2021/11/15 06:23:56;;;;;;;10.45;1.60;;;;;;;2.90;62.89;100977.22;5023111;28;20119;-43
2021/11/15 06:26:21;;;;;;;1.98;1.00;;;;;;;3.09;62.69;100988.66;5012557;28;20132;-50
2021/11/15 06:28:49;;;;;;;1.98;0.93;;;;;;;3.17;62.00;100976.81;5018762;28;20128;-46
2021/11/15 06:31:16;;;;;;;4.97;0.80;;;;;;;3.03;63.13;100991.16;5027781;28;20038;-46
2021/11/15 06:33:48;;;;;;;2.83;0.90;;;;;;;2.86;62.89;100990.84;5029276;28;20037;-43
2021/11/15 06:36:17;;;;;;;3.10;0.90;;;;;;;2.82;63.28;101001.06;5009995;28;20509;-44
2021/11/15 06:38:43;;;;;;;1.80;0.60;;;;;;;2.74;63.50;101003.47;5011472;28;20401;-44
2021/11/15 06:41:09;;;;;;;2.85;1.00;;;;;;;2.67;63.34;101006.75;5021456;28;20128;-43
2021/11/15 06:43:35;;;;;;;2.05;0.80;;;;;;;2.71;63.41;101008.56;5029711;28;20562;-45
2021/11/15 06:46:01;;;;;;;2.38;1.20;;;;;;;2.77;63.48;101018.06;5022825;28;20037;-45
2021/11/15 06:48:30;;;;;;;2.22;0.90;;;;;;;2.87;63.22;101022.53;5030831;28;20081;-46
2021/11/15 06:50:56;;;;;;;5.18;1.40;;;;;;;2.89;62.97;101018.28;5030628;28;20037;-43
2021/11/15 06:53:22;;;;;;;2.08;1.00;;;;;;;2.87;62.85;101022.53;5030827;28;20406;-46
2021/11/15 06:55:48;;;;;;;2.30;1.10;;;;;;;2.67;62.71;100995.63;5019645;28;20804;-44
2021/11/15 06:58:14;;;;;;;4.10;1.10;;;;;;;2.81;63.18;101030.13;5010757;28;20061;-45
2021/11/15 07:00:40;;;;;;;2.58;1.05;;;;;;;2.84;63.19;101035.31;5026217;28;20041;-43
2021/11/15 07:03:05;;;;;;;4.10;1.40;;;;;;;2.87;63.48;101040.53;5010839;28;20540;-44
2021/11/15 07:05:31;;;;;;;3.00;1.20;;;;;;;2.90;63.37;101041.44;5011927;28;20151;-44
2021/11/15 07:07:57;;;;;;;2.20;1.10;;;;;;;2.91;63.09;101030.31;5010376;28;20513;-44
2021/11/15 07:10:23;;;;;;;2.22;1.00;;;;;;;2.97;62.70;101051.00;4992984;28;20045;-46
2021/11/15 07:12:49;;;;;;;1.08;0.65;;;;;;;3.02;62.55;101050.19;5042475;28;20048;-44
2021/11/15 07:15:16;;;;;;;2.65;1.08;;;;;;;3.10;62.22;101064.91;5009799;28;20049;-46
2021/11/15 07:17:42;;;;;;;2.45;1.00;;;;;;;3.12;61.90;101070.94;5030335;28;20535;-43
2021/11/15 07:20:09;;;;;;;4.18;1.10;;;;;;;3.10;61.81;101071.75;5028750;28;20493;-45
2021/11/15 07:22:35;;;;;;;2.72;1.00;;;;;;;3.08;61.67;101069.19;4995949;28;20041;-43
2021/11/15 07:25:01;;;;;;;2.28;0.95;;;;;;;3.00;61.42;101068.16;5030199;28;20056;-45
2021/11/15 07:27:28;;;;;;;1.55;0.73;;;;;;;3.09;61.56;101090.59;5011398;28;20418;-44
2021/11/15 07:29:57;;;;;;;2.05;0.90;;;;;;;3.12;61.78;101099.22;5010631;28;20042;-44
2021/11/15 07:32:24;;;;;;;1.95;0.93;;;;;;;3.02;61.53;101094.75;5009757;28;20084;-46
2021/11/15 07:34:51;;;;;;;1.92;1.10;;;;;;;3.07;61.40;101113.69;5009791;28;20576;-43
2021/11/15 07:37:16;;;;;;;1.27;0.88;;;;;;;3.14;61.40;101118.06;5024785;28;20106;-43
2021/11/15 07:39:42;;;;;;;2.13;1.10;;;;;;;3.21;61.12;101124.19;5012195;28;20041;-45
2021/11/15 07:42:10;;;;;;;2.05;1.00;;;;;;;3.24;61.16;101116.56;5029799;28;20432;-45
2021/11/15 07:44:36;;;;;;;2.03;0.90;;;;;;;3.27;60.87;101130.34;5021660;28;20072;-44
2021/11/15 07:47:05;;;;;;;2.03;0.90;;;;;;;3.31;60.51;101131.25;5010703;28;20038;-46
2021/11/15 07:49:32;;;;;;;2.10;1.08;;;;;;;3.35;60.88;101125.31;5009730;28;20046;-45
2021/11/15 07:51:58;;;;;;;2.17;0.90;;;;;;;3.40;60.75;101145.13;5022065;28;20421;-45
2021/11/15 07:54:24;;;;;;;2.80;0.90;;;;;;;3.43;60.72;101149.47;5024348;28;20057;-44
2021/11/15 07:56:49;;;;;;;1.52;0.90;;;;;;;3.44;60.81;101152.91;5041867;28;20456;-45
2021/11/15 07:59:15;;;;;;;1.77;1.00;;;;;;;3.46;60.69;101153.78;5023569;28;20491;-46
2021/11/15 08:01:44;;;;;;;2.50;0.90;;;;;;;3.47;60.55;101145.22;5026676;28;20037;-44
2021/11/15 08:04:09;;;;;;;1.65;0.88;;;;;;;3.31;60.44;101131.25;5026745;28;20535;-42
2021/11/15 08:06:35;;;;;;;2.38;0.93;;;;;;;3.48;60.01;101162.41;5019613;28;20089;-44
2021/11/15 08:09:01;;;;;;;1.13;0.80;;;;;;;3.52;60.28;101159.03;5036364;28;20091;-42
2021/11/15 08:11:31;;;;;;;1.70;1.10;;;;;;;3.60;59.78;101171.22;5019971;28;20037;-45
2021/11/15 08:13:58;;;;;;;3.08;1.00;;;;;;;3.73;59.57;101172.28;5022629;28;20041;-45
2021/11/15 08:16:26;;;;;;;1.95;1.05;;;;;;;3.81;59.70;101173.28;5028288;28;20439;-44
2021/11/15 08:18:52;;;;;;;4.07;1.00;;;;;;;3.73;59.68;101167.13;5027902;28;20048;-44
2021/11/15 08:21:21;;;;;;;1.20;0.80;;;;;;;3.84;59.09;101174.19;5037897;28;20050;-44
2021/11/15 08:23:48;;;;;;;1.70;0.88;;;;;;;3.76;59.02;101164.63;5026257;28;20127;-44
2021/11/15 08:26:57;;;;;;;1.05;0.90;;;;;;;3.93;58.90;101182.88;5024857;28;20034;-43
2021/11/15 08:29:25;;;;;;;8.68;4.85;;;;;;;3.98;58.51;101191.59;5028095;28;20048;-44
2021/11/15 08:31:53;;;;;;;1.90;0.93;;;;;;;3.97;58.68;101188.13;5025898;28;20041;-45
2021/11/15 08:34:19;;;;;;;4.78;2.70;;;;;;;3.90;58.38;101188.00;5019813;28;20049;-46
2021/11/15 08:36:47;;;;;;;3.97;1.90;;;;;;;4.01;58.36;101194.19;5027046;28;20424;-43
2021/11/15 08:39:15;;;;;;;3.08;1.33;;;;;;;4.05;58.28;101206.25;5028618;28;20064;-45
2021/11/15 08:41:46;;;;;;;4.80;1.05;;;;;;;3.99;58.20;101191.59;5008403;28;20053;-46
2021/11/15 08:44:19;;;;;;;1.35;0.80;;;;;;;4.06;58.10;101195.13;5010300;28;20069;-46
2021/11/15 08:46:47;;;;;;;1.13;0.90;;;;;;;4.02;57.70;101193.34;5018754;28;20038;-43
2021/11/15 08:49:14;;;;;;;7.22;1.27;;;;;;;4.10;57.60;101220.94;5012306;28;20139;-43
2021/11/15 08:51:41;;;;;;;1.80;0.90;;;;;;;3.93;57.58;101200.91;5030017;28;20033;-44
2021/11/15 08:54:09;;;;;;;2.00;0.90;;;;;;;4.04;57.88;101232.81;5033139;28;20054;-45
2021/11/15 08:56:39;;;;;;;2.60;1.02;;;;;;;3.94;57.42;101244.69;5032974;28;20099;-43
2021/11/15 08:59:05;;;;;;;2.03;1.20;;;;;;;3.74;57.83;101234.03;5031446;28;20052;-43
2021/11/15 09:01:31;;;;;;;1.38;0.77;;;;;;;3.81;57.25;101253.03;5031466;28;20041;-43
2021/11/15 09:03:57;;;;;;;1.55;0.70;;;;;;;3.79;57.32;101249.56;5033123;28;20037;-45
2021/11/15 09:06:30;;;;;;;0.93;0.70;;;;;;;3.68;57.28;101233.94;5032931;28;20180;-43
2021/11/15 09:08:56;;;;;;;1.23;0.80;;;;;;;3.83;56.83;101256.47;5032592;28;20052;-46
2021/11/15 09:11:22;;;;;;;1.52;0.80;;;;;;;3.91;57.14;101246.34;5022439;28;20426;-43
2021/11/15 09:13:48;;;;;;;2.80;1.00;;;;;;;3.91;56.94;101257.50;5011477;28;20041;-45
2021/11/15 09:16:15;;;;;;;1.30;0.73;;;;;;;4.01;57.00;101258.53;5027431;28;20042;-45
2021/11/15 09:18:45;;;;;;;1.30;1.10;;;;;;;4.06;56.63;101244.03;5012468;28;20049;-43
2021/11/15 09:21:13;;;;;;;2.25;0.90;;;;;;;4.10;56.48;101244.09;5015339;28;20129;-43
2021/11/15 09:23:40;;;;;;;2.83;0.95;;;;;;;4.14;56.47;101250.16;5027931;28;20072;-46
2021/11/15 09:26:08;;;;;;;1.38;0.98;;;;;;;4.19;55.82;101249.41;5027957;28;20497;-45
2021/11/15 09:28:35;;;;;;;1.95;1.00;;;;;;;4.26;56.02;101252.94;4995121;28;20092;-44
2021/11/15 09:31:01;;;;;;;3.30;1.00;;;;;;;4.31;56.07;101255.59;5013278;28;20092;-43
2021/11/15 09:33:27;;;;;;;1.42;1.02;;;;;;;4.34;55.27;101248.81;5014152;28;20072;-43
2021/11/15 09:35:55;;;;;;;2.08;0.90;;;;;;;4.59;54.98;101268.06;5030815;28;20049;-45
2021/11/15 09:38:22;;;;;;;4.18;1.13;;;;;;;4.66;55.38;101278.47;5032218;28;20053;-43
2021/11/15 09:40:55;;;;;;;2.13;1.13;;;;;;;4.59;54.96;101268.06;5032310;28;20516;-44
2021/11/15 09:43:32;;;;;;;1.70;1.40;;;;;;;4.56;54.79;101271.44;5028834;28;20060;-45
2021/11/15 09:46:19;;;;;;;2.25;1.10;;;;;;;4.60;54.99;101287.84;5014034;28;20034;-42
2021/11/15 09:48:48;;;;;;;2.50;1.10;;;;;;;4.58;55.07;101294.66;5027195;28;20053;-45
2021/11/15 09:51:14;;;;;;;2.67;1.15;;;;;;;4.55;55.30;101292.06;5027362;28;20052;-44
2021/11/15 09:53:40;;;;;;;1.20;0.88;;;;;;;4.49;55.40;101297.97;5030575;28;20060;-44
2021/11/15 09:56:09;;;;;;;1.35;0.77;;;;;;;4.47;55.29;101296.19;5030827;28;20132;-48
2021/11/15 09:58:35;;;;;;;1.65;1.10;;;;;;;4.27;55.12;101275.28;5031890;28;20410;-44
2021/11/15 10:01:03;;;;;;;4.20;1.30;;;;;;;4.36;55.29;101301.16;5031528;28;20132;-47
2021/11/15 10:03:29;;;;;;;2.50;1.00;;;;;;;4.33;54.84;101303.72;5013150;28;20041;-43
2021/11/15 10:05:55;;;;;;;3.83;1.00;;;;;;;4.30;55.26;101306.22;5012089;28;20485;-46
2021/11/15 10:08:21;;;;;;;2.92;1.02;;;;;;;4.29;54.78;101307.06;5011933;28;20454;-48
2021/11/15 10:10:56;;;;;;;1.92;1.00;;;;;;;4.28;55.58;101319.91;5010479;28;20048;-44
2021/11/15 10:13:31;;;;;;;2.97;1.48;;;;;;;4.28;55.80;101307.91;5026025;28;20094;-43
2021/11/15 10:16:16;;;;;;;4.05;1.30;;;;;;;4.33;55.55;101308.00;5030611;28;20381;-42
2021/11/15 10:18:50;;;;;;;2.97;1.80;;;;;;;4.39;55.60;101308.09;5030770;28;20111;-43
2021/11/15 10:21:29;;;;;;;3.05;1.70;;;;;;;4.41;55.40;101312.41;5031170;28;20041;-44
2021/11/15 10:24:02;;;;;;;9.30;5.07;;;;;;;4.39;54.99;101313.25;5027943;28;20053;-45
2021/11/15 10:26:32;;;;;;;4.13;2.22;;;;;;;4.36;54.85;101310.59;5030934;28;20136;-45
2021/11/15 10:29:05;;;;;;;3.80;1.55;;;;;;;4.39;55.40;101318.41;5029813;28;20132;-44
2021/11/15 10:31:44;;;;;;;1.98;1.30;;;;;;;4.31;55.29;101304.50;5029709;28;20513;-45
2021/11/15 10:34:13;;;;;;;1.85;1.10;;;;;;;4.41;54.92;101333.00;5011618;28;20042;-44
2021/11/15 10:36:59;;;;;;;1.77;1.20;;;;;;;4.36;55.13;101326.91;5010921;28;20045;-45
2021/11/15 10:39:41;;;;;;;2.05;1.20;;;;;;;4.32;54.96;101330.28;5025753;28;20140;-44
2021/11/15 10:42:20;;;;;;;2.13;1.10;;;;;;;4.28;54.88;101338.81;5011300;28;20075;-42
2021/11/15 10:45:06;;;;;;;5.22;1.10;;;;;;;4.27;55.35;101337.06;5009503;28;20119;-45
2021/11/15 10:47:41;;;;;;;2.20;1.30;;;;;;;4.29;55.09;101337.97;5009598;28;20053;-46
2021/11/15 10:50:21;;;;;;;2.78;0.90;;;;;;;4.31;55.08;101335.41;5010880;28;20072;-44
2021/11/15 10:53:09;;;;;;;2.25;0.90;;;;;;;4.34;55.38;101340.63;5009742;28;20096;-45
2021/11/15 10:55:41;;;;;;;1.80;1.13;;;;;;;4.35;54.64;101347.47;5030226;28;20048;-45
2021/11/15 10:58:14;;;;;;;3.97;1.10;;;;;;;4.35;54.55;101350.06;5042605;28;20041;-43
2021/11/15 11:00:45;;;;;;;3.83;1.10;;;;;;;4.33;54.70;101344.91;5026094;28;20046;-44
2021/11/15 11:03:15;;;;;;;2.55;1.20;;;;;;;4.30;54.51;101354.25;5010857;28;20038;-47
2021/11/15 11:05:44;;;;;;;7.03;1.17;;;;;;;4.26;54.80;101361.94;5029515;28;20061;-47
2021/11/15 11:08:17;;;;;;;2.22;1.00;;;;;;;4.14;54.64;101372.00;5028929;28;20085;-46
2021/11/15 11:11:06;;;;;;;2.60;1.10;;;;;;;4.07;54.96;101369.31;5025918;28;20050;-45
2021/11/15 11:13:55;;;;;;;2.72;1.00;;;;;;;4.05;54.61;101365.81;5009191;28;20038;-43
2021/11/15 11:16:47;;;;;;;1.95;0.93;;;;;;;4.02;55.06;101363.19;5050802;28;20516;-44
2021/11/15 11:24:59;;;;;;;1.98;1.00;;;;;;;3.93;55.12;101373.28;5029547;28;20049;-44
2021/11/15 11:27:28;;;;;;;2.45;1.13;;;;;;;3.89;55.44;101379.22;5013352;28;20045;-45
2021/11/15 11:29:55;;;;;;;4.70;1.35;;;;;;;3.89;55.48;101389.50;5025536;28;20046;-43
2021/11/15 11:32:24;;;;;;;4.80;1.55;;;;;;;3.90;55.43;101386.09;5008922;28;20474;-43
2021/11/15 11:34:51;;;;;;;3.42;1.70;;;;;;;3.88;55.74;101395.50;5025227;28;20096;-44
2021/11/15 11:37:19;;;;;;;2.05;1.00;;;;;;;3.83;55.38;101395.41;5024717;28;20053;-45
2021/11/15 11:39:47;;;;;;;2.50;0.90;;;;;;;3.71;55.52;101392.59;5044647;28;20123;-48
2021/11/15 11:42:14;;;;;;;4.93;1.00;;;;;;;3.71;55.87;101398.63;5028380;28;20489;-48
2021/11/15 11:44:41;;;;;;;3.40;0.90;;;;;;;3.68;55.68;101402.81;5022289;28;20069;-44
2021/11/15 11:47:10;;;;;;;5.22;0.80;;;;;;;3.54;55.24;101384.53;5020530;28;20041;-45